Time;durP1;ratioP1;P1;durP2;ratioP2;P2;SDS_P1;SDS_P2;PMS_P1;PMS_P2;Temp;Humidity;BMP_temperature;BMP_pressure;BME280_temperature;BME280_humidity;BME280_pressure;Samples;Min_cycle;Max_cycle;Signal;HPM_P1;HPM_P2
2023/06/17 00:01:19;;;;;;;14.80;6.90;;;;;;;15.90;56.76;101904.50;6101252;19;20947;-75
2023/06/17 00:03:24;;;;;;;13.45;6.68;;;;;;;15.88;57.23;101903.75;6102628;19;20346;-76
2023/06/17 00:05:31;;;;;;;9.15;6.53;;;;;;;15.81;57.28;101908.44;6102424;19;20009;-75
2023/06/17 00:07:39;;;;;;;9.93;6.43;;;;;;;15.82;57.56;101904.00;6102246;19;20014;-75
2023/06/17 00:09:44;;;;;;;12.05;7.68;;;;;;;15.80;57.96;101898.78;6098993;19;20077;-77
2023/06/17 00:11:51;;;;;;;11.55;7.10;;;;;;;15.75;57.83;101899.00;6098362;19;20338;-76
2023/06/17 00:13:56;;;;;;;11.70;7.70;;;;;;;15.66;57.64;101899.38;6094215;19;20025;-73
2023/06/17 00:16:06;;;;;;;12.52;6.88;;;;;;;15.66;58.97;101895.84;6096979;19;20011;-74
2023/06/17 00:18:11;;;;;;;11.68;7.40;;;;;;;15.66;59.02;101895.84;6097713;19;20397;-76
2023/06/17 00:20:16;;;;;;;11.05;6.93;;;;;;;15.62;57.81;101887.19;6101480;19;20093;-76
2023/06/17 00:22:25;;;;;;;13.77;7.60;;;;;;;15.57;58.02;101894.50;6101080;19;20574;-69
2023/06/17 00:24:33;;;;;;;12.45;7.82;;;;;;;15.54;58.18;101884.03;6100196;19;20006;-69
2023/06/17 00:26:39;;;;;;;12.93;8.60;;;;;;;15.49;58.36;101888.69;6102874;19;20006;-70
2023/06/17 00:28:44;;;;;;;12.50;7.57;;;;;;;15.46;58.73;101891.47;6099725;19;20023;-70
2023/06/17 00:30:50;;;;;;;11.95;8.27;;;;;;;15.42;59.10;101892.50;6102821;19;20506;-69
2023/06/17 00:33:00;;;;;;;11.95;7.57;;;;;;;15.39;58.75;101885.56;6103039;19;20010;-69
2023/06/17 00:35:07;;;;;;;14.13;8.38;;;;;;;15.45;59.37;101879.97;6101602;19;20491;-70
2023/06/17 00:37:12;;;;;;;13.48;8.02;;;;;;;15.40;59.64;101881.13;6102962;19;20384;-69
2023/06/17 00:39:17;;;;;;;14.13;8.55;;;;;;;15.39;59.72;101879.41;6097543;19;20014;-69
2023/06/17 00:41:26;;;;;;;14.50;8.70;;;;;;;15.35;60.31;101876.91;6101924;19;20239;-69
2023/06/17 00:43:31;;;;;;;21.08;10.85;;;;;;;15.36;59.21;101875.09;6101010;19;20101;-69
2023/06/17 00:45:38;;;;;;;15.45;8.52;;;;;;;15.29;58.81;101876.28;6103105;19;20483;-69
2023/06/17 00:47:46;;;;;;;13.20;8.48;;;;;;;15.28;58.89;101883.38;6102196;19;20014;-70
2023/06/17 00:49:56;;;;;;;12.13;7.88;;;;;;;15.15;59.53;101879.56;6102473;19;20348;-69
2023/06/17 00:52:07;;;;;;;13.63;8.20;;;;;;;15.12;59.24;101882.34;6098378;19;20507;-70
2023/06/17 00:54:33;;;;;;;15.90;8.40;;;;;;;15.05;59.39;101871.13;6102983;19;20700;-69
2023/06/17 00:56:40;;;;;;;14.07;7.93;;;;;;;15.03;59.97;101874.78;6102539;19;20010;-70
2023/06/17 00:58:47;;;;;;;12.68;7.95;;;;;;;14.98;59.93;101884.69;6101024;19;20392;-69
2023/06/17 01:00:53;;;;;;;15.90;9.60;;;;;;;15.00;60.17;101877.56;6098724;19;20010;-70
2023/06/17 01:02:58;;;;;;;16.58;8.63;;;;;;;15.05;60.64;101876.44;6103458;19;20493;-75
2023/06/17 01:05:10;;;;;;;16.73;9.68;;;;;;;15.03;61.43;101869.47;6103605;19;20011;-74
2023/06/17 01:07:35;;;;;;;15.52;9.57;;;;;;;14.96;60.43;101875.97;6096153;19;20190;-75
2023/06/17 01:09:45;;;;;;;15.07;8.82;;;;;;;14.92;60.76;101875.22;6096363;19;20046;-75
2023/06/17 01:11:54;;;;;;;18.08;10.75;;;;;;;14.87;60.38;101875.41;6100362;19;20179;-75
2023/06/17 01:14:05;;;;;;;15.88;8.30;;;;;;;14.83;61.42;101879.13;6096399;19;19999;-77
2023/06/17 01:16:11;;;;;;;16.08;8.55;;;;;;;14.82;61.80;101876.53;6095749;19;19998;-76
2023/06/17 01:18:19;;;;;;;13.30;8.55;;;;;;;14.78;62.11;101870.53;6096674;19;20737;-77
2023/06/17 01:20:28;;;;;;;13.93;8.10;;;;;;;14.75;62.16;101873.31;6097522;19;20523;-75
2023/06/17 01:22:35;;;;;;;14.43;8.82;;;;;;;14.76;63.15;101875.00;6094359;19;20014;-75
2023/06/17 01:24:45;;;;;;;15.00;7.80;;;;;;;14.77;63.48;101876.75;6097776;19;20145;-76
2023/06/17 01:26:56;;;;;;;10.82;7.72;;;;;;;14.75;62.94;101880.38;6094280;19;20861;-76
2023/06/17 01:29:02;;;;;;;;;;;;;;;14.70;62.92;101881.41;6094504;19;20007;-75
2023/06/17 01:31:12;;;;;;;11.98;7.20;;;;;;;14.65;63.79;101882.53;6093644;19;20490;-76
2023/06/17 01:33:20;;;;;;;12.35;7.55;;;;;;;14.54;64.58;101888.25;6094787;19;20026;-75
2023/06/17 01:35:28;;;;;;;13.70;7.18;;;;;;;14.56;64.16;101883.78;6094485;19;20485;-77
2023/06/17 01:37:38;;;;;;;13.32;7.60;;;;;;;14.53;65.22;101888.31;6092842;19;20010;-76
2023/06/17 01:39:49;;;;;;;14.43;8.50;;;;;;;14.45;65.33;101891.22;6091926;19;20014;-75
2023/06/17 01:41:56;;;;;;;13.05;7.45;;;;;;;14.44;65.82;101893.00;6089947;19;20010;-77
2023/06/17 01:44:04;;;;;;;13.15;7.70;;;;;;;14.41;64.48;101884.34;6085095;19;19999;-75
2023/06/17 01:46:12;;;;;;;12.35;8.07;;;;;;;14.39;65.55;101881.75;6090759;19;20014;-76
2023/06/17 01:48:20;;;;;;;16.63;8.23;;;;;;;14.41;65.65;101884.34;6090819;19;20015;-76
2023/06/17 01:50:25;;;;;;;14.32;8.57;;;;;;;14.42;65.48;101876.34;6092825;19;20079;-75
2023/06/17 01:52:31;;;;;;;14.02;7.68;;;;;;;14.37;65.42;101880.94;6087962;19;20014;-74
2023/06/17 01:54:36;;;;;;;14.15;8.10;;;;;;;14.38;66.28;101884.47;6093986;19;20078;-76
2023/06/17 01:56:44;;;;;;;12.55;7.68;;;;;;;14.36;65.17;101883.69;6090922;19;20006;-77
2023/06/17 01:58:51;;;;;;;13.82;8.82;;;;;;;14.35;65.52;101874.00;6088927;19;20382;-75
2023/06/17 02:00:59;;;;;;;16.23;9.02;;;;;;;14.31;64.96;101878.56;6092863;19;20006;-76
2023/06/17 02:03:05;;;;;;;14.95;9.27;;;;;;;14.29;65.35;101875.09;6090958;19;20035;-77
2023/06/17 02:05:11;;;;;;;15.32;9.23;;;;;;;14.25;65.65;101873.53;6091872;19;20013;-75
2023/06/17 02:07:17;;;;;;;14.80;9.13;;;;;;;14.21;66.90;101872.75;6096988;19;20349;-77
2023/06/17 02:09:23;;;;;;;17.15;9.38;;;;;;;14.24;66.90;101877.06;6099140;19;20002;-76
2023/06/17 02:11:28;;;;;;;15.52;9.13;;;;;;;14.18;66.81;101864.97;6099554;19;20058;-76
2023/06/17 02:13:36;;;;;;;15.05;9.27;;;;;;;14.19;66.40;101865.81;6096155;19;20070;-75
2023/06/17 02:15:42;;;;;;;15.27;8.85;;;;;;;14.14;67.41;101865.13;6095734;19;20006;-74
2023/06/17 02:17:47;;;;;;;13.65;9.13;;;;;;;14.11;67.57;101865.25;6095748;19;20497;-75
2023/06/17 02:19:55;;;;;;;14.40;8.73;;;;;;;14.05;67.58;101861.94;6092965;19;20523;-77
2023/06/17 02:22:04;;;;;;;17.23;11.00;;;;;;;14.04;67.19;101862.88;6096480;19;20055;-75
2023/06/17 02:24:10;;;;;;;15.55;10.73;;;;;;;14.07;67.20;101866.31;6092254;19;20011;-76
2023/06/17 02:26:15;;;;;;;15.43;9.90;;;;;;;14.07;68.18;101859.25;6094214;19;20039;-74
2023/06/17 02:28:21;;;;;;;19.10;10.20;;;;;;;14.06;68.33;101852.25;6092393;19;20038;-74
2023/06/17 02:30:30;;;;;;;18.58;11.32;;;;;;;14.02;68.66;101856.75;6084610;19;20014;-75
2023/06/17 02:32:35;;;;;;;20.17;12.10;;;;;;;13.99;67.81;101846.31;6095921;19;20046;-75
2023/06/17 02:34:42;;;;;;;25.10;12.98;;;;;;;13.99;68.68;101851.59;6091741;19;20015;-77
2023/06/17 02:36:47;;;;;;;20.48;10.98;;;;;;;13.92;68.53;101851.91;6092540;19;20017;-76
2023/06/17 02:38:56;;;;;;;17.10;11.18;;;;;;;13.83;68.90;101840.75;6091490;19;20055;-75
2023/06/17 02:41:02;;;;;;;17.13;10.05;;;;;;;13.83;68.97;101839.91;6089416;19;20006;-75
2023/06/17 02:43:08;;;;;;;15.93;10.00;;;;;;;13.88;69.46;101843.22;6092906;19;20014;-75
2023/06/17 02:45:13;;;;;;;19.52;11.90;;;;;;;13.91;70.04;101848.41;6092241;19;20011;-75
2023/06/17 02:47:23;;;;;;;17.10;10.90;;;;;;;13.91;69.82;101844.91;6092270;19;20036;-75
2023/06/17 02:49:28;;;;;;;17.10;10.13;;;;;;;13.83;70.05;101837.25;6092220;19;20007;-76
2023/06/17 02:51:34;;;;;;;18.08;10.25;;;;;;;13.79;69.90;101843.56;6093271;19;20094;-75
2023/06/17 02:53:39;;;;;;;18.02;10.10;;;;;;;13.75;69.85;101850.75;6088051;19;20486;-74
2023/06/17 02:55:46;;;;;;;19.88;10.82;;;;;;;13.79;71.58;101840.94;6097771;19;20444;-77
2023/06/17 02:57:51;;;;;;;17.98;11.20;;;;;;;13.84;72.40;101837.19;6094540;19;20038;-76
2023/06/17 02:59:58;;;;;;;16.75;11.30;;;;;;;13.78;71.53;101841.88;6091576;19;20519;-74
2023/06/17 03:02:03;;;;;;;18.67;10.65;;;;;;;13.73;72.46;101847.31;6090175;19;20011;-75
2023/06/17 03:04:12;;;;;;;19.48;12.60;;;;;;;13.71;71.93;101845.66;6095340;19;20010;-77
2023/06/17 03:06:18;;;;;;;17.60;11.13;;;;;;;13.72;71.78;101839.47;6095634;19;20491;-76
2023/06/17 03:08:24;;;;;;;17.80;11.38;;;;;;;13.76;72.63;101835.75;6097183;19;20011;-77
2023/06/17 03:10:32;;;;;;;18.33;12.30;;;;;;;13.72;71.02;101844.75;6094572;19;20011;-75
2023/06/17 03:12:37;;;;;;;21.95;12.18;;;;;;;13.67;70.85;101838.78;6096440;19;20339;-75
2023/06/17 03:14:42;;;;;;;18.48;12.70;;;;;;;13.63;70.99;101838.00;6096803;19;20010;-74
2023/06/17 03:16:47;;;;;;;21.98;12.90;;;;;;;13.60;71.93;101846.91;6096741;19;20067;-75
2023/06/17 03:18:55;;;;;;;19.42;12.82;;;;;;;13.59;71.26;101839.06;6098871;19;20027;-75
2023/06/17 03:21:05;;;;;;;18.55;12.32;;;;;;;13.65;71.28;101835.31;6097938;19;20755;-74
2023/06/17 03:23:11;;;;;;;20.67;12.23;;;;;;;13.67;71.33;101836.13;6093596;19;20055;-75
2023/06/17 03:25:16;;;;;;;19.85;12.30;;;;;;;13.71;72.60;101833.28;6098109;19;20483;-75
2023/06/17 03:27:21;;;;;;;18.48;12.75;;;;;;;13.69;71.55;101832.50;6093630;19;20376;-76
2023/06/17 03:29:34;;;;;;;16.95;11.40;;;;;;;13.66;71.66;101832.59;6096657;19;20093;-75
2023/06/17 03:31:39;;;;;;;20.33;12.13;;;;;;;13.63;72.65;101837.16;6100320;19;20069;-75
2023/06/17 03:33:44;;;;;;;20.10;12.52;;;;;;;13.62;72.01;101836.28;6097027;19;20034;-75
2023/06/17 03:35:50;;;;;;;18.65;12.10;;;;;;;13.57;71.77;101833.81;6096552;19;20010;-76
2023/06/17 03:37:58;;;;;;;20.30;12.85;;;;;;;13.60;72.79;101828.41;6094136;19;20570;-75
2023/06/17 03:40:03;;;;;;;20.48;12.15;;;;;;;13.59;71.74;101826.69;6098731;19;20014;-76
2023/06/17 03:42:09;;;;;;;22.85;14.02;;;;;;;13.64;73.58;101830.94;6100282;19;20010;-76
2023/06/17 03:44:15;;;;;;;21.48;12.65;;;;;;;13.69;72.62;101831.63;6097553;19;20041;-76
2023/06/17 03:46:21;;;;;;;22.23;12.55;;;;;;;13.72;72.53;101839.47;6099546;19;20304;-76
2023/06/17 03:48:26;;;;;;;20.63;12.20;;;;;;;13.67;72.12;101838.78;6094511;19;20691;-74
2023/06/17 03:50:33;;;;;;;21.77;13.35;;;;;;;13.75;72.62;101828.78;6095974;19;20002;-75
2023/06/17 03:52:38;;;;;;;21.08;13.38;;;;;;;13.67;72.83;101834.34;6093609;19;20247;-76
2023/06/17 03:54:46;;;;;;;21.25;13.20;;;;;;;13.65;71.79;101830.03;6094805;19;20357;-77
2023/06/17 03:56:51;;;;;;;22.48;12.73;;;;;;;13.60;72.13;101830.19;6097509;19;20095;-76
2023/06/17 03:58:57;;;;;;;19.42;12.60;;;;;;;13.61;72.58;101830.16;6099961;19;20006;-76
2023/06/17 04:01:02;;;;;;;21.58;13.63;;;;;;;13.61;73.02;101832.78;6104304;19;20279;-76
2023/06/17 04:03:07;;;;;;;21.45;13.02;;;;;;;13.63;72.81;101831.88;6107075;19;20039;-75
2023/06/17 04:05:13;;;;;;;22.67;13.05;;;;;;;13.65;72.80;101832.69;6106982;19;20010;-75
2023/06/17 04:07:18;;;;;;;27.40;15.35;;;;;;;13.67;73.99;101838.78;6109596;19;20036;-76
2023/06/17 04:09:23;;;;;;;23.92;13.95;;;;;;;13.68;73.99;101837.84;6106017;19;20033;-75
2023/06/17 04:11:32;;;;;;;25.92;14.95;;;;;;;13.71;73.31;101838.56;6112620;19;20699;-75
2023/06/17 04:13:37;;;;;;;21.25;14.50;;;;;;;13.74;73.32;101840.25;6105808;19;20321;-74
2023/06/17 04:15:42;;;;;;;24.75;13.93;;;;;;;13.78;74.95;101848.00;6106834;19;20007;-74
2023/06/17 04:17:47;;;;;;;25.15;14.77;;;;;;;13.81;73.33;101844.38;6107056;19;20011;-75
2023/06/17 04:19:56;;;;;;;24.30;14.40;;;;;;;13.85;73.65;101835.44;6106671;19;20550;-76
2023/06/17 04:22:02;;;;;;;23.25;15.23;;;;;;;13.88;74.03;101839.75;6101179;19;20101;-75
2023/06/17 04:24:08;;;;;;;28.55;15.80;;;;;;;13.92;74.66;101838.69;6106955;19;20011;-75
2023/06/17 04:26:15;;;;;;;27.13;16.15;;;;;;;13.98;75.08;101849.91;6104766;19;20007;-75
2023/06/17 04:28:23;;;;;;;26.45;15.75;;;;;;;14.09;74.34;101840.69;6106764;19;20033;-75
2023/06/17 04:30:28;;;;;;;28.52;16.48;;;;;;;14.18;74.94;101841.16;6101325;19;20031;-75
2023/06/17 04:32:35;;;;;;;26.52;16.00;;;;;;;14.30;74.62;101839.84;6105004;19;20006;-75
2023/06/17 04:34:42;;;;;;;29.65;17.02;;;;;;;14.38;74.28;101832.44;6102496;19;20825;-75
2023/06/17 04:36:49;;;;;;;29.15;17.45;;;;;;;14.44;74.32;101837.47;6102396;19;20006;-76
2023/06/17 04:38:56;;;;;;;31.15;18.00;;;;;;;14.55;74.70;101833.56;6098066;19;20006;-68
2023/06/17 04:41:02;;;;;;;26.95;16.77;;;;;;;14.66;74.23;101840.13;6098632;19;20011;-68
2023/06/17 04:43:07;;;;;;;27.27;17.33;;;;;;;14.82;73.99;101837.69;6099731;19;20012;-69
2023/06/17 04:45:15;;;;;;;27.88;16.42;;;;;;;15.00;73.24;101829.91;6094705;19;20027;-70
2023/06/17 04:47:24;;;;;;;28.23;17.40;;;;;;;15.20;73.03;101829.06;6098345;19;20094;-69
2023/06/17 04:49:41;;;;;;;26.15;16.23;;;;;;;15.42;72.79;101831.59;6097193;19;20082;-71
2023/06/17 04:51:48;;;;;;;26.30;16.90;;;;;;;15.58;72.54;101836.13;6101986;19;20011;-76
2023/06/17 04:53:54;;;;;;;29.73;18.27;;;;;;;15.78;72.36;101829.94;6093902;19;20053;-75
2023/06/17 04:56:04;;;;;;;27.70;17.70;;;;;;;15.99;72.35;101836.03;6073233;19;20015;-75
2023/06/17 04:58:09;;;;;;;28.48;18.25;;;;;;;16.06;73.23;101830.44;6094033;19;20018;-75
2023/06/17 05:00:17;;;;;;;28.33;18.10;;;;;;;16.30;71.70;101823.97;6092618;19;21436;-76
2023/06/17 05:02:26;;;;;;;32.40;18.23;;;;;;;16.52;71.50;101833.50;6093508;19;20006;-74
2023/06/17 05:04:32;;;;;;;29.45;18.58;;;;;;;16.58;72.37;101831.41;6101510;19;20014;-75
2023/06/17 05:06:37;;;;;;;28.33;19.02;;;;;;;16.69;72.82;101830.84;6101812;19;20010;-74
2023/06/17 05:08:42;;;;;;;30.35;20.55;;;;;;;16.94;72.19;101833.16;6099324;19;20043;-75
2023/06/17 05:10:47;;;;;;;30.42;18.77;;;;;;;17.22;70.91;101832.59;6097573;19;20015;-69
2023/06/17 05:12:53;;;;;;;27.25;17.88;;;;;;;17.45;70.83;101826.03;6100762;19;20038;-69
2023/06/17 05:14:58;;;;;;;30.23;19.77;;;;;;;17.68;69.63;101830.13;6101443;19;20021;-69
2023/06/17 05:17:07;;;;;;;26.77;17.73;;;;;;;17.88;68.96;101834.38;6097753;19;20487;-69
2023/06/17 05:19:12;;;;;;;24.20;16.90;;;;;;;18.30;68.36;101834.69;6099863;19;20014;-69
2023/06/17 05:21:19;;;;;;;26.00;17.35;;;;;;;18.56;67.53;101831.41;6101682;19;20010;-71
2023/06/17 05:23:25;;;;;;;27.52;18.05;;;;;;;18.81;67.02;101827.34;6102013;19;20530;-69
2023/06/17 05:25:33;;;;;;;28.27;16.55;;;;;;;18.79;66.54;101830.06;6096170;19;20017;-71
2023/06/17 05:27:39;;;;;;;28.92;16.20;;;;;;;19.08;66.00;101823.00;6100876;19;20003;-69
2023/06/17 05:29:44;;;;;;;27.55;17.70;;;;;;;19.28;65.49;101827.13;6101902;19;20015;-70
2023/06/17 05:31:48;;;;;;;25.45;16.00;;;;;;;19.63;64.65;101825.88;6101466;19;20031;-69
2023/06/17 05:33:57;;;;;;;25.23;17.45;;;;;;;19.33;65.04;101826.84;6101254;19;20147;-70
2023/06/17 05:36:02;;;;;;;24.27;15.88;;;;;;;19.89;63.70;101829.59;6098412;19;20175;-69
2023/06/17 05:38:07;;;;;;;25.95;15.70;;;;;;;20.03;62.01;101818.88;6102353;19;20007;-70
2023/06/17 05:40:13;;;;;;;25.33;16.60;;;;;;;20.28;61.60;101817.28;6097567;19;20051;-70
2023/06/17 05:42:18;;;;;;;21.90;14.57;;;;;;;20.67;59.87;101823.59;6099338;19;20010;-70
2023/06/17 05:44:23;;;;;;;21.17;14.70;;;;;;;20.89;58.61;101817.69;6090410;19;20331;-69
2023/06/17 05:46:29;;;;;;;22.25;14.68;;;;;;;21.10;57.81;101810.84;6093161;19;20007;-69
2023/06/17 05:48:35;;;;;;;23.23;14.98;;;;;;;21.03;57.55;101815.75;6095909;19;20026;-69
2023/06/17 05:50:42;;;;;;;24.13;13.70;;;;;;;21.28;56.81;101814.06;6096677;19;20039;-69
2023/06/17 05:52:47;;;;;;;21.50;13.75;;;;;;;21.41;56.67;101824.78;6099995;19;20377;-69
2023/06/17 05:54:55;;;;;;;21.73;15.10;;;;;;;21.60;55.85;101809.13;6100480;19;20413;-75
2023/06/17 05:57:01;;;;;;;24.95;14.00;;;;;;;21.74;56.11;101815.31;6102755;19;20066;-75
2023/06/17 05:59:06;;;;;;;23.02;13.93;;;;;;;22.15;54.35;101814.97;6102267;19;20479;-75
2023/06/17 06:01:12;;;;;;;22.80;14.10;;;;;;;22.44;53.96;101818.16;6102204;19;20011;-75
2023/06/17 06:03:17;;;;;;;21.55;13.88;;;;;;;22.40;52.29;101815.84;6096138;19;20013;-69
2023/06/17 06:05:25;;;;;;;18.83;12.80;;;;;;;22.55;51.62;101817.38;6088026;19;20014;-70
2023/06/17 06:07:33;;;;;;;17.05;11.02;;;;;;;22.84;51.31;101819.66;6104936;19;20526;-70
2023/06/17 06:09:38;;;;;;;18.63;12.52;;;;;;;22.90;50.27;101820.00;6102420;19;20062;-69
2023/06/17 06:11:44;;;;;;;18.38;12.10;;;;;;;22.60;49.05;101820.53;6100376;19;20078;-70
2023/06/17 06:13:49;;;;;;;21.35;12.20;;;;;;;22.90;48.48;101816.47;6102873;19;20010;-71
2023/06/17 06:15:54;;;;;;;19.00;11.32;;;;;;;23.39;48.86;101813.53;6099866;19;20027;-71
2023/06/17 06:18:01;;;;;;;24.85;13.45;;;;;;;23.39;47.39;101805.47;6097880;19;20007;-70
2023/06/17 06:20:07;;;;;;;19.05;12.57;;;;;;;23.34;45.98;101813.03;6098197;19;20018;-70
2023/06/17 06:22:13;;;;;;;17.23;11.23;;;;;;;23.14;45.69;101811.06;6095992;19;20010;-69
2023/06/17 06:24:20;;;;;;;16.35;11.93;;;;;;;23.42;45.75;101807.91;6097206;19;20014;-69
2023/06/17 06:26:29;;;;;;;18.67;12.02;;;;;;;23.49;45.03;101815.50;6099548;19;20408;-69
2023/06/17 06:28:35;;;;;;;19.10;11.68;;;;;;;23.60;45.45;101810.97;6093998;19;20010;-70
2023/06/17 06:30:40;;;;;;;14.38;9.75;;;;;;;23.70;44.86;101812.88;6091485;19;20703;-69
2023/06/17 06:32:46;;;;;;;16.38;10.73;;;;;;;23.53;45.08;101809.75;6092159;19;20427;-71
2023/06/17 06:34:51;;;;;;;14.00;8.45;;;;;;;23.46;44.23;101808.53;6097503;19;20025;-69
2023/06/17 06:36:58;;;;;;;13.82;7.63;;;;;;;23.78;42.29;101805.97;6098576;19;20023;-70
2023/06/17 06:39:03;;;;;;;11.35;7.75;;;;;;;24.26;40.96;101802.06;6100946;19;20011;-70
2023/06/17 06:41:13;;;;;;;13.23;8.60;;;;;;;24.70;41.61;101805.56;6100502;19;20014;-69
2023/06/17 06:43:18;;;;;;;11.35;7.40;;;;;;;25.18;40.28;101805.03;6102689;19;20014;-70
2023/06/17 06:45:25;;;;;;;14.77;8.55;;;;;;;24.91;40.78;101803.72;6101961;19;20417;-69
2023/06/17 06:47:32;;;;;;;15.80;9.15;;;;;;;24.58;42.19;101803.91;6099874;19;20014;-69
2023/06/17 06:49:37;;;;;;;12.70;7.93;;;;;;;24.96;40.25;101801.50;6093827;19;20009;-70
2023/06/17 06:51:42;;;;;;;15.00;7.93;;;;;;;25.33;38.94;101795.63;6098815;19;20454;-69
2023/06/17 06:53:48;;;;;;;11.07;7.03;;;;;;;25.27;38.49;101792.59;6094538;19;20030;-76
2023/06/17 06:55:53;;;;;;;11.32;7.60;;;;;;;25.30;39.60;101793.16;6099325;19;20011;-75
2023/06/17 06:58:01;;;;;;;13.35;7.88;;;;;;;25.47;38.25;101798.94;6095782;19;20669;-70
2023/06/17 07:00:09;;;;;;;12.75;8.02;;;;;;;25.22;39.63;101798.38;6094963;19;20106;-70
2023/06/17 07:02:14;;;;;;;11.05;6.97;;;;;;;25.74;37.25;101801.84;6095790;19;20006;-69
2023/06/17 07:04:21;;;;;;;11.95;7.47;;;;;;;25.73;36.67;101794.75;6094621;19;20010;-69
2023/06/17 07:06:26;;;;;;;12.05;6.68;;;;;;;26.20;35.87;101797.69;6097599;19;20444;-69
2023/06/17 07:08:32;;;;;;;10.18;6.80;;;;;;;25.60;35.42;101797.69;6097027;19;20854;-69
2023/06/17 07:10:39;;;;;;;11.02;7.15;;;;;;;25.79;35.35;101804.97;6096276;19;20014;-71
2023/06/17 07:12:46;;;;;;;12.15;7.30;;;;;;;25.78;33.60;101791.66;6096826;19;20423;-70
2023/06/17 07:14:53;;;;;;;12.30;6.40;;;;;;;25.68;35.08;101802.41;6098037;19;20966;-70
2023/06/17 07:16:59;;;;;;;11.35;6.88;;;;;;;26.50;34.01;101801.22;6095586;19;20031;-70
2023/06/17 07:19:04;;;;;;;10.43;6.80;;;;;;;26.55;33.19;101800.84;6098320;19;20492;-69
2023/06/17 07:21:10;;;;;;;10.75;6.63;;;;;;;26.76;32.76;101804.22;6098446;19;20470;-70
2023/06/17 07:23:15;;;;;;;12.15;6.40;;;;;;;25.82;32.38;101806.53;6096353;19;20003;-69
2023/06/17 07:25:21;;;;;;;10.55;6.70;;;;;;;25.67;31.61;101800.66;6099555;19;20014;-68
2023/06/17 07:27:30;;;;;;;9.60;5.93;;;;;;;26.04;32.43;101802.75;6097080;19;20028;-69
2023/06/17 07:29:35;;;;;;;11.50;6.65;;;;;;;26.40;31.42;101798.53;6095964;19;20009;-68
2023/06/17 07:31:47;;;;;;;9.55;6.00;;;;;;;27.29;30.98;101789.34;6098004;19;20014;-70
2023/06/17 07:33:55;;;;;;;11.40;6.03;;;;;;;27.03;30.56;101795.34;6098331;19;20019;-72
2023/06/17 07:36:04;;;;;;;10.63;5.88;;;;;;;26.85;30.26;101792.53;6093560;19;20002;-71
2023/06/17 07:38:09;;;;;;;9.55;6.10;;;;;;;26.81;30.65;101804.63;6094682;19;20030;-70
2023/06/17 07:40:15;;;;;;;9.75;6.00;;;;;;;26.95;31.23;101800.63;6100443;19;20002;-70
2023/06/17 07:42:21;;;;;;;8.93;6.15;;;;;;;27.30;29.30;101794.56;6099365;19;20035;-71
2023/06/17 07:44:27;;;;;;;8.98;6.20;;;;;;;27.61;29.03;101798.84;6095814;19;20010;-76
2023/06/17 07:46:32;;;;;;;9.75;6.15;;;;;;;27.89;29.29;101791.59;6105514;19;20011;-76
2023/06/17 07:48:41;;;;;;;10.38;6.55;;;;;;;27.49;30.34;101796.34;6101453;19;20010;-77
2023/06/17 07:50:47;;;;;;;10.35;6.03;;;;;;;27.44;29.94;101803.19;6097308;19;20401;-77
2023/06/17 07:52:57;;;;;;;12.45;6.72;;;;;;;27.14;29.11;101789.75;6094068;19;20264;-76
2023/06/17 07:55:05;;;;;;;11.68;6.88;;;;;;;27.39;29.61;101795.53;6094580;19;20471;-76
2023/06/17 07:57:12;;;;;;;9.65;6.50;;;;;;;27.22;30.21;101793.63;6100282;19;20006;-77
2023/06/17 07:59:21;;;;;;;10.07;6.10;;;;;;;27.99;29.26;101789.69;6098696;19;20066;-76
2023/06/17 08:01:27;;;;;;;11.10;6.30;;;;;;;28.22;28.36;101798.16;6092091;19;20003;-77
2023/06/17 08:03:33;;;;;;;11.95;5.85;;;;;;;27.87;28.25;101796.31;6095218;19;20599;-77
2023/06/17 08:05:41;;;;;;;10.50;5.82;;;;;;;27.38;28.57;101798.38;6096635;19;20033;-77
2023/06/17 08:07:47;;;;;;;9.48;6.45;;;;;;;27.48;29.17;101802.72;6091695;19;20031;-77
2023/06/17 08:09:55;;;;;;;11.02;5.82;;;;;;;27.88;27.97;101798.84;6095346;19;20011;-75
2023/06/17 08:12:02;;;;;;;9.95;5.90;;;;;;;27.73;26.98;101798.50;6096936;19;19999;-77
2023/06/17 08:14:07;;;;;;;10.02;5.90;;;;;;;28.26;27.68;101796.03;6097342;19;20551;-77
2023/06/17 08:16:12;;;;;;;10.70;5.75;;;;;;;28.06;26.52;101793.47;6097747;19;20006;-76
2023/06/17 08:18:17;;;;;;;8.32;5.30;;;;;;;28.27;25.72;101795.00;6104311;19;20104;-77
2023/06/17 08:20:24;;;;;;;9.05;5.38;;;;;;;28.19;26.32;101793.91;6105653;19;20499;-76
2023/06/17 08:22:35;;;;;;;8.20;5.18;;;;;;;28.51;26.14;101791.69;6105953;19;20621;-77
2023/06/17 08:24:41;;;;;;;10.38;5.65;;;;;;;28.47;27.73;101796.56;6104522;19;20082;-76
2023/06/17 08:26:46;;;;;;;8.18;5.18;;;;;;;29.01;25.73;101799.16;6105018;19;20032;-77
2023/06/17 08:28:51;;;;;;;10.48;5.25;;;;;;;28.60;25.94;101797.03;6104251;19;20088;-77
2023/06/17 08:30:59;;;;;;;9.63;6.13;;;;;;;29.12;25.57;101806.19;6102000;19;20326;-70
2023/06/17 08:33:06;;;;;;;9.38;5.82;;;;;;;29.18;25.04;101798.28;6097267;19;20003;-76
2023/06/17 08:35:14;;;;;;;8.00;4.88;;;;;;;28.96;25.86;101796.06;6103458;19;20409;-76
2023/06/17 08:37:22;;;;;;;7.57;5.28;;;;;;;28.89;26.31;101795.88;6104822;19;20100;-77
2023/06/17 08:39:31;;;;;;;10.13;6.07;;;;;;;28.67;26.34;101791.81;6109272;19;20021;-77
2023/06/17 08:41:39;;;;;;;8.20;5.60;;;;;;;28.88;27.09;101795.03;6107863;19;20013;-78
2023/06/17 08:43:47;;;;;;;9.32;5.63;;;;;;;29.40;26.05;101785.19;6108893;19;20251;-78
2023/06/17 08:45:54;;;;;;;9.15;5.57;;;;;;;29.36;26.18;101791.91;6107340;19;20510;-78
2023/06/17 08:48:02;;;;;;;10.35;6.07;;;;;;;30.04;26.24;101783.69;6107293;19;20018;-77
2023/06/17 08:50:08;;;;;;;8.95;5.65;;;;;;;30.24;27.49;101789.69;6092731;19;20015;-77
2023/06/17 08:52:19;;;;;;;10.20;5.68;;;;;;;30.16;26.19;101781.50;6104501;19;20396;-77
2023/06/17 08:54:27;;;;;;;9.75;5.47;;;;;;;30.23;25.37;101784.38;6108149;19;20006;-77
2023/06/17 08:56:37;;;;;;;9.13;5.45;;;;;;;30.59;24.65;101776.78;6108502;19;20767;-78
2023/06/17 08:58:43;;;;;;;11.75;5.57;;;;;;;30.16;24.71;101784.22;6108067;19;20504;-70
2023/06/17 09:00:48;;;;;;;9.55;5.80;;;;;;;30.25;24.87;101787.81;6104007;19;20113;-71
2023/06/17 09:02:58;;;;;;;9.00;5.38;;;;;;;30.16;25.43;101782.34;6105126;19;20467;-70
2023/06/17 09:05:03;;;;;;;8.15;5.45;;;;;;;29.73;25.06;101778.91;6106008;19;20357;-70
2023/06/17 09:07:09;;;;;;;8.43;5.82;;;;;;;30.12;25.41;101778.31;6104352;19;20021;-71
2023/06/17 09:09:16;;;;;;;8.07;5.50;;;;;;;30.52;25.23;101775.78;6101394;19;20047;-72
2023/06/17 09:11:24;;;;;;;8.77;5.60;;;;;;;30.30;24.83;101780.84;6103122;19;20569;-69
2023/06/17 09:13:33;;;;;;;9.18;5.90;;;;;;;30.60;25.07;101773.91;6095177;19;20034;-68
2023/06/17 09:15:42;;;;;;;9.68;5.95;;;;;;;30.41;24.93;101787.81;6090029;19;20035;-70
2023/06/17 09:17:49;;;;;;;9.88;5.57;;;;;;;30.25;25.07;101783.22;6093949;19;20011;-71
2023/06/17 09:19:58;;;;;;;9.27;5.55;;;;;;;30.31;24.37;101776.31;6097885;19;20144;-71
2023/06/17 09:22:09;;;;;;;10.38;6.47;;;;;;;30.15;24.59;101775.25;6092909;19;20518;-69
2023/06/17 09:24:14;;;;;;;8.93;5.63;;;;;;;29.98;25.23;101781.66;6096784;19;20520;-70
2023/06/17 09:26:20;;;;;;;10.00;6.22;;;;;;;29.95;25.74;101776.56;6095802;19;20670;-70
2023/06/17 09:28:30;;;;;;;9.90;6.05;;;;;;;29.36;26.40;101776.53;6093529;19;20085;-70
2023/06/17 09:30:43;;;;;;;8.05;5.65;;;;;;;29.77;26.44;101776.69;6095567;19;20098;-71
2023/06/17 09:32:50;;;;;;;9.90;5.90;;;;;;;30.24;25.32;101781.53;6100115;19;20373;-70
2023/06/17 09:34:55;;;;;;;9.63;6.30;;;;;;;30.06;25.22;101778.94;6097210;19;20120;-69
2023/06/17 09:37:03;;;;;;;9.57;5.63;;;;;;;30.23;24.45;101770.81;6101520;19;20002;-70
2023/06/17 09:39:09;;;;;;;10.10;5.97;;;;;;;30.71;25.85;101766.44;6098534;19;20741;-69
2023/06/17 09:41:23;;;;;;;9.85;5.88;;;;;;;31.09;25.25;101764.00;6104282;19;20456;-71